You are not logged in, Click here to log in
ICAO: RKSI Country: 韓國首都首爾
Latitude: 37.4602 Longitude: 126.441
Total Arrivals: 49 Total Departures: 44
Latest Arrival: M3O01 (ZMUB-RKSI)Jason. Li Latest Departure: CA402 (RKSI-ZUUU)Jason. Li
Scenery:
METAR : RKSI 241100Z 30003KT 7000 NSC 19/12 Q1011 NOSIG

仁川國際機場ICN